Hovedside
METAR-TAF:

METAR-TAF

Lufthavner :

Skellefteå, Sverige

Skellefteå lufthavn

breddegrad: 64-38N, lengdegrad: 021-05E, høyde over havet: 49 m

Gjeldene værobservasjon

Denne rapporten ble laget for 17 minutter siden, klokken 05:50 UTC
Vind 8 kt fra Vest-nordvest
Temperatur -5°C
Luftfuktighet 73%
Trykk 1016 hPa
Sikt 10 km eller mer
ingen skyer under 1500 m og ingen bygeskyer

METAR: ESNS 240550Z 29008KT CAVOK M05/M09 Q1016

Tid: 07:07 (06:07 UTC)

Varsel

Denne rapporten ble laget for 37 minutter siden, klokken 05:30 UTC
Varsel gyldig fra 24. klokken 06 UTC til 24. klokken 15 UTC
Vind 10 kt fra Vest
Sikt 10 km eller mer
ingen skyer under 1500 m og ingen bygeskyer
Midlertidig
fra 24. klokken 10 UTC til 24. klokken 15 UTC
Vind 10 kt fra Sør-sørvest

TAF: ESNS 240530Z 2406/2415 28010KT CAVOK TEMPO 2410/2415 20010KT

Værobservasjoner og værvarsel for over 4000 flyplasser (METAR- og TAF-rapporter).

Tilgjengelige stasjoner er representert av de røde og gule prikkene på kartet.

Hold musepekeren over prikken for å se navnet på stasjonen.

Klikk så for å se værobservasjoner og -varsler.

For å forandre kartet kan du klikke på den grønne knappen med svart kryss for å zoome inn, på den grønne knappen med strek for å zoome ut, eller på de grønne pilene for å se tilstøtende kart.


METAR-TAF: